createdAt,value
2018-12-11T00:00:44.308Z,11.35
2018-12-11T00:03:12.478Z,11.70
2018-12-11T00:05:40.619Z,12.15
2018-12-11T00:08:08.948Z,10.35
2018-12-11T00:10:37.482Z,10.50
2018-12-11T00:13:05.998Z,10.48
2018-12-11T00:15:34.386Z,11.88
2018-12-11T00:18:02.550Z,9.40
2018-12-11T00:20:31.394Z,8.93
2018-12-11T00:23:00.346Z,11.10
2018-12-11T00:25:28.688Z,10.30
2018-12-11T00:27:57.051Z,10.32
2018-12-11T00:30:25.246Z,12.40
2018-12-11T00:32:53.395Z,10.80
2018-12-11T00:35:21.569Z,8.60
2018-12-11T00:37:49.758Z,8.65
2018-12-11T00:40:18.246Z,11.83
2018-12-11T00:42:46.398Z,10.13
2018-12-11T00:45:14.631Z,9.87
2018-12-11T00:47:42.949Z,9.23
2018-12-11T00:50:11.067Z,8.75
2018-12-11T00:52:39.307Z,12.70
2018-12-11T00:55:07.942Z,11.37
2018-12-11T00:57:36.531Z,11.08
2018-12-11T01:00:07.205Z,10.38
2018-12-11T01:02:35.574Z,8.15
2018-12-11T01:05:04.975Z,7.55
2018-12-11T01:07:33.207Z,10.88
2018-12-11T01:10:03.387Z,9.43
2018-12-11T01:12:31.890Z,9.63
2018-12-11T01:15:00.023Z,7.72
2018-12-11T01:17:28.212Z,7.62
2018-12-11T01:19:57.034Z,9.88
2018-12-11T01:22:25.294Z,11.78
2018-12-11T01:24:54.077Z,7.60
2018-12-11T01:27:22.247Z,8.58
2018-12-11T01:29:50.405Z,7.27
2018-12-11T01:32:19.040Z,8.63
2018-12-11T01:34:47.258Z,9.10
2018-12-11T01:37:15.344Z,7.37
2018-12-11T01:39:43.787Z,9.28
2018-12-11T01:42:12.111Z,9.00
2018-12-11T01:44:41.036Z,8.50
2018-12-11T01:47:09.279Z,8.50
2018-12-11T01:49:37.534Z,8.58
2018-12-11T01:52:05.617Z,8.85
2018-12-11T01:54:33.780Z,8.28
2018-12-11T01:57:01.861Z,7.90
2018-12-11T01:59:30.031Z,8.70
2018-12-11T02:01:58.090Z,8.85
2018-12-11T02:04:26.285Z,10.83
2018-12-11T02:06:54.419Z,9.40
2018-12-11T02:09:22.614Z,11.35
2018-12-11T02:11:50.895Z,7.80
2018-12-11T02:14:19.395Z,7.80
2018-12-11T02:16:47.536Z,8.00
2018-12-11T02:19:15.718Z,8.70
2018-12-11T02:21:44.090Z,8.90
2018-12-11T02:24:12.290Z,7.47
2018-12-11T02:26:40.433Z,9.53
2018-12-11T02:29:08.642Z,6.60
2018-12-11T02:31:36.670Z,5.90
2018-12-11T02:34:04.986Z,7.25
2018-12-11T02:36:33.168Z,5.90
2018-12-11T02:39:01.321Z,5.80
2018-12-11T02:41:29.371Z,5.97
2018-12-11T02:43:57.667Z,6.10
2018-12-11T02:46:25.845Z,7.25
2018-12-11T02:48:53.886Z,5.65
2018-12-11T02:51:22.176Z,5.50
2018-12-11T02:53:50.293Z,7.23
2018-12-11T02:56:18.426Z,6.27
2018-12-11T02:58:46.453Z,6.30
2018-12-11T03:01:14.589Z,6.03
2018-12-11T03:03:42.818Z,6.87
2018-12-11T03:06:11.038Z,8.00
2018-12-11T03:08:39.056Z,5.90
2018-12-11T03:11:07.390Z,7.65
2018-12-11T03:13:35.528Z,6.00
2018-12-11T03:16:03.821Z,6.30
2018-12-11T03:18:32.058Z,8.48
2018-12-11T03:21:00.259Z,7.67
2018-12-11T03:23:28.309Z,5.70
2018-12-11T03:25:56.515Z,6.65
2018-12-11T03:28:24.785Z,10.13
2018-12-11T03:30:53.227Z,7.85
2018-12-11T03:33:21.329Z,6.87
2018-12-11T03:35:49.620Z,6.22
2018-12-11T03:38:17.887Z,9.38
2018-12-11T03:40:46.157Z,5.95
2018-12-11T03:43:15.110Z,6.92
2018-12-11T03:45:43.295Z,7.65
2018-12-11T03:48:11.390Z,8.88
2018-12-11T03:50:40.382Z,6.22
2018-12-11T03:53:08.686Z,6.60
2018-12-11T03:55:36.948Z,8.38
2018-12-11T03:58:05.223Z,6.55
2018-12-11T04:00:33.675Z,5.12
2018-12-11T04:03:02.657Z,8.98
2018-12-11T04:05:30.927Z,9.70
2018-12-11T04:07:59.239Z,8.23
2018-12-11T04:10:27.284Z,7.00
2018-12-11T04:12:55.484Z,9.00
2018-12-11T04:15:23.670Z,7.20
2018-12-11T04:17:51.827Z,7.00
2018-12-11T04:20:19.923Z,5.58
2018-12-11T04:22:48.158Z,6.58
2018-12-11T04:25:16.267Z,6.97
2018-12-11T04:27:44.423Z,6.05
2018-12-11T04:30:12.721Z,5.40
2018-12-11T04:32:40.879Z,9.93
2018-12-11T04:35:09.257Z,7.87
2018-12-11T04:37:37.312Z,5.85
2018-12-11T04:40:06.334Z,7.50
2018-12-11T04:42:34.364Z,7.12
2018-12-11T04:45:02.560Z,6.60
2018-12-11T04:47:30.693Z,7.53
2018-12-11T04:49:58.799Z,7.80
2018-12-11T04:52:26.954Z,4.60
2018-12-11T04:54:55.050Z,5.65
2018-12-11T04:57:23.145Z,8.53
2018-12-11T04:59:51.199Z,5.53
2018-12-11T05:02:19.243Z,7.30
2018-12-11T05:04:47.346Z,7.58
2018-12-11T05:07:15.690Z,5.00
2018-12-11T05:09:43.891Z,7.12
2018-12-11T05:12:12.097Z,5.25
2018-12-11T05:14:40.259Z,7.50
2018-12-11T05:17:08.382Z,5.75
2018-12-11T05:19:36.582Z,8.00
2018-12-11T05:22:05.583Z,6.30
2018-12-11T05:24:33.737Z,6.17
2018-12-11T05:27:02.021Z,5.83
2018-12-11T05:29:30.095Z,7.90
2018-12-11T05:31:58.293Z,8.90
2018-12-11T05:34:26.406Z,8.08
2018-12-11T05:36:54.686Z,7.80
2018-12-11T05:39:22.779Z,9.63
2018-12-11T05:41:51.179Z,9.13
2018-12-11T05:44:19.320Z,6.90
2018-12-11T05:46:47.601Z,8.80
2018-12-11T05:49:15.785Z,6.53
2018-12-11T05:51:43.859Z,6.65
2018-12-11T05:54:12.115Z,6.03
2018-12-11T05:56:40.208Z,6.87
2018-12-11T05:59:08.372Z,5.37
2018-12-11T06:01:36.432Z,7.07
2018-12-11T06:04:04.520Z,6.53
2018-12-11T06:06:32.535Z,6.55
2018-12-11T06:09:00.658Z,5.53
2018-12-11T06:11:28.994Z,6.97
2018-12-11T06:13:57.107Z,6.33
2018-12-11T06:16:25.593Z,7.90
2018-12-11T06:18:53.873Z,6.17
2018-12-11T06:21:21.913Z,4.97
2018-12-11T06:23:49.988Z,5.05
2018-12-11T06:26:18.040Z,4.00
2018-12-11T06:28:47.159Z,8.95
2018-12-11T06:31:15.361Z,6.47
2018-12-11T06:33:43.518Z,8.68
2018-12-11T06:36:11.899Z,8.03
2018-12-11T06:38:40.161Z,7.95
2018-12-11T06:41:08.912Z,9.50
2018-12-11T06:43:37.027Z,6.55
2018-12-11T06:46:05.188Z,4.80
2018-12-11T06:48:33.355Z,6.30
2018-12-11T06:51:01.555Z,5.50
2018-12-11T06:53:30.412Z,7.90
2018-12-11T06:55:58.516Z,8.90
2018-12-11T06:58:26.546Z,7.03
2018-12-11T07:00:54.663Z,6.85
2018-12-11T07:03:22.813Z,6.60
2018-12-11T07:05:51.022Z,5.95
2018-12-11T07:08:19.042Z,7.53
2018-12-11T07:10:47.906Z,9.20
2018-12-11T07:13:16.225Z,6.87
2018-12-11T07:15:44.309Z,6.58
2018-12-11T07:18:12.469Z,9.70
2018-12-11T07:20:40.740Z,9.23
2018-12-11T07:23:09.514Z,7.70
2018-12-11T07:25:37.625Z,6.73
2018-12-11T07:28:05.671Z,8.73
2018-12-11T07:30:33.838Z,7.58
2018-12-11T07:33:02.100Z,5.95
2018-12-11T07:35:30.209Z,8.63
2018-12-11T07:37:58.258Z,8.03
2018-12-11T07:40:26.419Z,5.08
2018-12-11T07:42:54.606Z,9.85
2018-12-11T07:45:26.195Z,8.88
2018-12-11T07:47:54.340Z,6.70
2018-12-11T07:50:22.483Z,5.63
2018-12-11T07:52:50.854Z,5.97
2018-12-11T07:55:19.142Z,5.00
2018-12-11T07:57:47.259Z,7.25
2018-12-11T08:00:15.403Z,5.10
2018-12-11T08:02:43.682Z,5.87
2018-12-11T08:05:12.042Z,4.05
2018-12-11T08:07:40.463Z,3.98
2018-12-11T08:10:09.549Z,4.97
2018-12-11T08:12:38.661Z,6.03
2018-12-11T08:15:07.100Z,5.50
2018-12-11T08:17:35.502Z,4.55
2018-12-11T08:20:04.342Z,5.87
2018-12-11T08:22:32.462Z,5.87
2018-12-11T08:25:01.635Z,6.67
2018-12-11T08:27:29.895Z,5.67
2018-12-11T08:29:58.370Z,8.35
2018-12-11T08:32:26.770Z,10.55
2018-12-11T08:34:54.952Z,7.70
2018-12-11T08:37:23.098Z,4.75
2018-12-11T08:39:51.295Z,7.75
2018-12-11T08:42:19.533Z,5.40
2018-12-11T08:44:51.167Z,5.33
2018-12-11T08:47:17.942Z,5.05
2018-12-11T08:49:46.664Z,5.92
2018-12-11T08:52:14.725Z,5.33
2018-12-11T08:54:42.759Z,4.70
2018-12-11T08:57:10.967Z,7.50
2018-12-11T08:59:39.227Z,5.85
2018-12-11T09:02:07.310Z,5.75
2018-12-11T09:04:35.499Z,4.30
2018-12-11T09:07:03.741Z,4.97
2018-12-11T09:09:31.859Z,5.72
2018-12-11T09:12:00.108Z,6.85
2018-12-11T09:14:28.379Z,5.25
2018-12-11T09:16:57.062Z,5.60
2018-12-11T09:19:25.268Z,4.75
2018-12-11T09:21:54.143Z,5.95
2018-12-11T09:24:23.276Z,5.50
2018-12-11T09:26:51.379Z,5.58
2018-12-11T09:29:19.483Z,5.25
2018-12-11T09:31:47.636Z,4.20
2018-12-11T09:34:15.829Z,4.00
2018-12-11T09:36:43.981Z,6.70
2018-12-11T09:39:12.179Z,5.15
2018-12-11T09:41:40.326Z,4.03
2018-12-11T09:44:08.448Z,5.47
2018-12-11T09:46:36.475Z,5.50
2018-12-11T09:49:05.181Z,4.75
2018-12-11T09:51:33.363Z,4.15
2018-12-11T09:54:01.606Z,6.35
2018-12-11T09:56:30.322Z,5.95
2018-12-11T09:58:58.346Z,5.63
2018-12-11T10:01:26.540Z,4.10
2018-12-11T10:03:54.685Z,4.50
2018-12-11T10:06:23.307Z,4.60
2018-12-11T10:08:54.128Z,5.45
2018-12-11T10:11:22.306Z,7.60
2018-12-11T10:13:50.474Z,4.28
2018-12-11T10:16:18.686Z,5.70
2018-12-11T10:18:46.805Z,7.47
2018-12-11T10:21:15.022Z,5.90
2018-12-11T10:23:43.396Z,5.83
2018-12-11T10:26:11.689Z,5.53
2018-12-11T10:28:39.712Z,4.53
2018-12-11T10:31:08.028Z,5.28
2018-12-11T10:33:36.049Z,6.50
2018-12-11T10:36:04.356Z,7.85
2018-12-11T10:38:32.514Z,6.50
2018-12-11T10:41:00.682Z,5.30
2018-12-11T10:43:28.783Z,6.33
2018-12-11T10:45:57.123Z,5.95
2018-12-11T10:48:25.250Z,7.35
2018-12-11T10:50:53.506Z,5.50
2018-12-11T10:53:21.670Z,5.67
2018-12-11T10:55:49.833Z,6.40
2018-12-11T10:58:17.920Z,6.40
2018-12-11T11:00:50.498Z,5.97
2018-12-11T11:03:18.704Z,7.20
2018-12-11T11:05:46.706Z,3.98
2018-12-11T11:08:14.828Z,5.62
2018-12-11T11:10:42.851Z,4.12
2018-12-11T11:13:11.060Z,6.55
2018-12-11T11:15:39.210Z,5.33
2018-12-11T11:18:07.607Z,5.60
2018-12-11T11:20:35.850Z,5.35
2018-12-11T11:23:04.042Z,7.28
2018-12-11T11:25:32.245Z,6.20
2018-12-11T11:28:00.887Z,5.58
2018-12-11T11:30:29.093Z,5.58
2018-12-11T11:32:57.338Z,4.50
2018-12-11T11:35:25.912Z,7.30
2018-12-11T11:37:54.110Z,5.25
2018-12-11T11:40:22.187Z,8.40
2018-12-11T11:42:50.339Z,3.60
2018-12-11T11:45:18.435Z,3.37
2018-12-11T11:47:46.690Z,5.08
2018-12-11T11:50:16.836Z,3.75
2018-12-11T11:52:44.857Z,5.50
2018-12-11T11:55:13.899Z,4.60
2018-12-11T11:57:42.062Z,4.85
2018-12-11T12:00:13.410Z,5.87
2018-12-11T12:02:41.472Z,6.90
2018-12-11T12:05:09.651Z,5.00
2018-12-11T12:07:37.838Z,6.25
2018-12-11T12:10:09.011Z,7.25
2018-12-11T12:12:37.049Z,5.85
2018-12-11T12:15:06.059Z,5.12
2018-12-11T12:17:34.099Z,5.90
2018-12-11T12:20:02.242Z,5.60
2018-12-11T12:22:31.004Z,6.30
2018-12-11T12:24:59.007Z,5.70
2018-12-11T12:27:27.175Z,6.80
2018-12-11T12:29:56.222Z,5.30
2018-12-11T12:32:24.678Z,5.42
2018-12-11T12:34:52.718Z,7.10
2018-12-11T12:37:20.982Z,6.92
2018-12-11T12:39:49.191Z,5.50
2018-12-11T12:42:17.361Z,5.35
2018-12-11T12:44:45.741Z,5.60
2018-12-11T12:47:13.943Z,6.53
2018-12-11T12:49:42.180Z,5.78
2018-12-11T12:52:10.365Z,5.90
2018-12-11T12:54:38.498Z,5.33
2018-12-11T12:57:06.817Z,5.15
2018-12-11T12:59:35.090Z,5.05
2018-12-11T13:02:03.128Z,5.58
2018-12-11T13:04:31.335Z,6.00
2018-12-11T13:06:59.694Z,6.90
2018-12-11T13:09:27.890Z,7.97
2018-12-11T13:11:55.930Z,5.30
2018-12-11T13:14:24.136Z,6.00
2018-12-11T13:16:52.203Z,5.75
2018-12-11T13:19:20.279Z,7.50
2018-12-11T13:21:48.434Z,5.30
2018-12-11T13:24:16.630Z,7.90
2018-12-11T13:26:44.659Z,6.37
2018-12-11T13:29:12.775Z,6.62
2018-12-11T13:31:40.953Z,6.85
2018-12-11T13:34:09.046Z,9.10
2018-12-11T13:36:37.263Z,8.75
2018-12-11T13:39:07.094Z,6.95
2018-12-11T13:41:35.139Z,10.65
2018-12-11T13:44:03.577Z,7.03
2018-12-11T13:46:32.378Z,5.80
2018-12-11T13:49:00.602Z,6.30
2018-12-11T13:51:28.787Z,5.20
2018-12-11T13:53:57.105Z,5.90
2018-12-11T13:56:25.221Z,6.00
2018-12-11T13:58:53.267Z,7.20
2018-12-11T14:01:21.414Z,7.95
2018-12-11T14:03:49.520Z,6.53
2018-12-11T14:06:18.371Z,6.10
2018-12-11T14:08:46.471Z,6.60
2018-12-11T14:11:14.691Z,5.80
2018-12-11T14:13:42.806Z,5.03
2018-12-11T14:16:10.924Z,5.75
2018-12-11T14:18:39.060Z,6.42
2018-12-11T14:21:07.293Z,6.20
2018-12-11T14:23:35.319Z,6.03
2018-12-11T14:26:03.403Z,6.35
2018-12-11T14:28:31.446Z,6.43
2018-12-11T14:30:59.642Z,6.50
2018-12-11T14:33:27.719Z,6.90
2018-12-11T14:35:56.487Z,7.00
2018-12-11T14:38:24.727Z,6.40
2018-12-11T14:40:52.826Z,7.37
2018-12-11T14:43:21.042Z,9.58
2018-12-11T14:45:49.202Z,8.60
2018-12-11T14:48:17.363Z,9.23
2018-12-11T14:50:45.611Z,9.98
2018-12-11T14:53:13.950Z,11.73
2018-12-11T14:55:41.982Z,12.40
2018-12-11T14:58:10.290Z,11.70
2018-12-11T15:00:38.427Z,11.95
2018-12-11T15:03:06.667Z,9.00
2018-12-11T15:05:34.771Z,10.58
2018-12-11T15:08:03.008Z,7.97
2018-12-11T15:10:31.666Z,11.45
2018-12-11T15:12:59.990Z,9.08
2018-12-11T15:15:28.191Z,8.30
2018-12-11T15:17:56.306Z,9.50
2018-12-11T15:20:24.361Z,8.95
2018-12-11T15:22:52.500Z,6.87
2018-12-11T15:25:20.687Z,7.40
2018-12-11T15:27:48.853Z,8.58
2018-12-11T15:30:17.027Z,7.87
2018-12-11T15:32:45.087Z,9.50
2018-12-11T15:35:13.197Z,8.40
2018-12-11T15:37:41.551Z,8.55
2018-12-11T15:40:09.637Z,8.20
2018-12-11T15:42:37.869Z,9.13
2018-12-11T15:45:06.272Z,9.28
2018-12-11T15:47:34.446Z,9.25
2018-12-11T15:50:02.800Z,8.75
2018-12-11T15:52:31.210Z,9.93
2018-12-11T15:54:59.583Z,10.20
2018-12-11T15:57:27.636Z,9.60
2018-12-11T15:59:56.037Z,10.03
2018-12-11T16:02:24.399Z,9.30
2018-12-11T16:04:52.596Z,10.95
2018-12-11T16:07:20.970Z,13.05
2018-12-11T16:09:49.543Z,12.68
2018-12-11T16:12:18.570Z,12.20
2018-12-11T16:14:47.822Z,10.48
2018-12-11T16:17:16.029Z,13.48
2018-12-11T16:19:44.158Z,11.00
2018-12-11T16:22:12.271Z,9.80
2018-12-11T16:24:40.616Z,9.70
2018-12-11T16:27:08.721Z,9.15
2018-12-11T16:31:01.257Z,7.20
2018-12-11T16:33:29.337Z,8.53
2018-12-11T16:35:57.390Z,7.87
2018-12-11T16:38:25.686Z,8.20
2018-12-11T16:40:53.838Z,8.50
2018-12-11T16:43:22.145Z,8.25
2018-12-11T16:45:50.164Z,8.85
2018-12-11T16:48:18.279Z,8.95
2018-12-11T16:50:46.310Z,11.57
2018-12-11T16:53:14.416Z,9.30
2018-12-11T16:55:42.428Z,9.88
2018-12-11T16:58:10.577Z,11.30
2018-12-11T17:00:38.641Z,10.98
2018-12-11T17:03:06.700Z,10.38
2018-12-11T17:05:35.179Z,8.60
2018-12-11T17:08:04.039Z,9.05
2018-12-11T17:10:32.266Z,9.15
2018-12-11T17:13:00.316Z,9.30
2018-12-11T17:15:28.917Z,9.60
2018-12-11T17:17:57.243Z,10.03
2018-12-11T17:20:26.063Z,9.95
2018-12-11T17:22:54.247Z,12.00
2018-12-11T17:25:22.411Z,10.55
2018-12-11T17:27:50.574Z,11.93
2018-12-11T17:30:18.646Z,9.85
2018-12-11T17:32:46.799Z,10.20
2018-12-11T17:35:15.007Z,12.45
2018-12-11T17:37:43.081Z,9.93
2018-12-11T17:40:11.311Z,10.13
2018-12-11T17:42:39.305Z,11.10
2018-12-11T17:45:08.130Z,11.73
2018-12-11T17:47:36.184Z,9.70
2018-12-11T17:50:05.597Z,9.08
2018-12-11T17:52:34.508Z,14.87
2018-12-11T17:55:02.528Z,12.17
2018-12-11T17:57:30.665Z,10.30
2018-12-11T17:59:59.381Z,13.40
2018-12-11T18:02:31.547Z,11.25
2018-12-11T18:04:59.629Z,10.70
2018-12-11T18:07:27.776Z,12.63
2018-12-11T18:09:55.872Z,10.67
2018-12-11T18:12:24.038Z,11.88
2018-12-11T18:14:52.181Z,9.75
2018-12-11T18:17:20.917Z,10.95
2018-12-11T18:19:50.017Z,9.53
2018-12-11T18:22:18.302Z,9.05
2018-12-11T18:24:48.435Z,9.80
2018-12-11T18:27:16.574Z,12.35
2018-12-11T18:29:44.713Z,10.23
2018-12-11T18:32:12.868Z,11.48
2018-12-11T18:34:48.691Z,9.70
2018-12-11T18:37:16.761Z,11.63
2018-12-11T18:39:47.003Z,10.78
2018-12-11T18:42:15.754Z,11.55
2018-12-11T18:44:45.442Z,10.68
2018-12-11T18:47:14.147Z,11.68
2018-12-11T18:49:42.419Z,11.48
2018-12-11T18:52:10.498Z,11.33
2018-12-11T18:54:42.891Z,11.12
2018-12-11T18:57:12.512Z,10.78
2018-12-11T18:59:40.722Z,12.05
2018-12-11T19:02:11.814Z,11.90
2018-12-11T19:04:40.139Z,11.73
2018-12-11T19:07:08.918Z,13.70
2018-12-11T19:09:37.018Z,13.88
2018-12-11T19:12:06.019Z,13.65
2018-12-11T19:14:34.239Z,13.70
2018-12-11T19:17:04.407Z,12.43
2018-12-11T19:19:33.197Z,12.43
2018-12-11T19:22:03.078Z,11.97
2018-12-11T19:24:46.218Z,14.33
2018-12-11T19:27:15.600Z,14.60
2018-12-11T19:29:46.693Z,14.50
2018-12-11T19:32:18.237Z,14.90
2018-12-11T19:34:48.442Z,13.55
2018-12-11T19:37:17.998Z,13.50
2018-12-11T19:39:48.080Z,16.48
2018-12-11T19:42:17.887Z,14.90
2018-12-11T19:44:46.995Z,14.03
2018-12-11T19:47:15.426Z,15.55
2018-12-11T19:49:43.735Z,13.45
2018-12-11T19:52:12.481Z,15.08
2018-12-11T19:54:42.313Z,14.67
2018-12-11T19:57:12.530Z,14.63
2018-12-11T19:59:40.746Z,15.85
2018-12-11T20:02:09.857Z,15.43
2018-12-11T20:04:37.898Z,16.42
2018-12-11T20:07:06.058Z,15.80
2018-12-11T20:09:37.646Z,15.23
2018-12-11T20:12:07.842Z,16.60
2018-12-11T20:14:41.018Z,16.20
2018-12-11T20:17:09.111Z,16.55
2018-12-11T20:19:38.120Z,14.65
2018-12-11T20:22:07.664Z,14.35
2018-12-11T20:24:40.167Z,15.38
2018-12-11T20:27:08.583Z,14.50
2018-12-11T20:29:37.471Z,14.17
2018-12-11T20:32:05.512Z,13.70
2018-12-11T20:34:35.900Z,14.53
2018-12-11T20:37:05.274Z,16.45
2018-12-11T20:39:33.416Z,13.90
2018-12-11T20:42:02.619Z,14.10
2018-12-11T20:44:30.651Z,13.80
2018-12-11T20:47:00.419Z,12.70
2018-12-11T20:49:28.442Z,14.03
2018-12-11T20:51:57.575Z,14.00
2018-12-11T20:54:25.632Z,14.18
2018-12-11T20:56:54.457Z,12.65
2018-12-11T20:59:24.497Z,14.20
2018-12-11T21:01:54.930Z,14.80
2018-12-11T21:04:23.851Z,16.90
2018-12-11T21:06:52.765Z,16.45
2018-12-11T21:09:20.907Z,14.15
2018-12-11T21:11:49.183Z,17.80
2018-12-11T21:14:17.432Z,14.65
2018-12-11T21:16:45.770Z,16.50
2018-12-11T21:19:13.954Z,16.48
2018-12-11T21:21:42.465Z,16.55
2018-12-11T21:24:11.003Z,16.93
2018-12-11T21:26:39.439Z,16.23
2018-12-11T21:29:08.221Z,15.13
2018-12-11T21:31:36.506Z,13.85
2018-12-11T21:34:04.883Z,15.65
2018-12-11T21:36:33.076Z,17.75
2018-12-11T21:39:01.146Z,16.32
2018-12-11T21:41:29.297Z,16.87
2018-12-11T21:43:58.040Z,17.55
2018-12-11T21:46:26.300Z,16.70
2018-12-11T21:48:54.311Z,13.70
2018-12-11T21:51:22.510Z,14.93
2018-12-11T21:53:50.559Z,16.27
2018-12-11T21:56:18.868Z,20.37
2018-12-11T21:58:46.906Z,14.00
2018-12-11T22:01:15.028Z,15.72
2018-12-11T22:03:43.502Z,15.10
2018-12-11T22:06:12.236Z,15.48
2018-12-11T22:08:40.326Z,15.72
2018-12-11T22:11:08.710Z,15.53
2018-12-11T22:13:36.876Z,16.45
2018-12-11T22:16:04.986Z,14.30
2018-12-11T22:18:33.023Z,13.20
2018-12-11T22:21:01.261Z,12.60
2018-12-11T22:23:29.327Z,14.60
2018-12-11T22:25:57.763Z,16.23
2018-12-11T22:28:26.017Z,15.90
2018-12-11T22:30:54.117Z,13.87
2018-12-11T22:33:22.281Z,14.25
2018-12-11T22:35:50.447Z,13.22
2018-12-11T22:38:18.854Z,15.70
2018-12-11T22:40:46.878Z,13.58
2018-12-11T22:43:15.706Z,12.40
2018-12-11T22:45:43.846Z,13.08
2018-12-11T22:48:12.046Z,11.70
2018-12-11T22:50:40.275Z,13.68
2018-12-11T22:53:08.626Z,13.25
2018-12-11T22:55:37.042Z,11.97
2018-12-11T22:58:05.191Z,12.55
2018-12-11T23:00:34.026Z,13.85
2018-12-11T23:03:02.374Z,13.28
2018-12-11T23:05:30.641Z,11.63
2018-12-11T23:07:58.956Z,12.45
2018-12-11T23:10:27.027Z,11.80
2018-12-11T23:12:55.218Z,12.53
2018-12-11T23:15:23.351Z,13.50
2018-12-11T23:17:51.547Z,12.20
2018-12-11T23:20:19.711Z,13.70
2018-12-11T23:22:48.069Z,14.30
2018-12-11T23:25:16.426Z,13.10
2018-12-11T23:27:44.731Z,14.85
2018-12-11T23:30:13.145Z,12.03
2018-12-11T23:32:41.300Z,14.05
2018-12-11T23:35:09.853Z,14.58
2018-12-11T23:37:38.157Z,12.93
2018-12-11T23:40:06.681Z,13.10
2018-12-11T23:42:34.798Z,14.50
2018-12-11T23:45:03.211Z,14.13
2018-12-11T23:47:32.066Z,13.43
2018-12-11T23:50:00.221Z,13.85
2018-12-11T23:52:28.397Z,13.05
2018-12-11T23:54:56.596Z,13.03
2018-12-11T23:57:24.860Z,12.30
2018-12-11T23:59:52.954Z,13.10
